sensor_id;sensor_type;location;lat;lon;timestamp;temperature;humidity
9971;DHT22;5026;51.494;11.974;2023-05-10T00:01:36;11.00;95.50
9971;DHT22;5026;51.494;11.974;2023-05-10T00:04:03;11.00;95.70
9971;DHT22;5026;51.494;11.974;2023-05-10T00:06:30;11.00;95.80
9971;DHT22;5026;51.494;11.974;2023-05-10T00:08:57;10.90;95.80
9971;DHT22;5026;51.494;11.974;2023-05-10T00:11:24;10.90;95.90
9971;DHT22;5026;51.494;11.974;2023-05-10T00:13:51;10.90;96.00
9971;DHT22;5026;51.494;11.974;2023-05-10T00:16:19;10.90;96.10
9971;DHT22;5026;51.494;11.974;2023-05-10T00:18:47;10.80;96.10
9971;DHT22;5026;51.494;11.974;2023-05-10T00:21:14;10.80;96.20
9971;DHT22;5026;51.494;11.974;2023-05-10T00:23:41;10.80;96.30
9971;DHT22;5026;51.494;11.974;2023-05-10T00:26:08;10.70;96.40
9971;DHT22;5026;51.494;11.974;2023-05-10T00:28:35;10.70;96.50
9971;DHT22;5026;51.494;11.974;2023-05-10T00:31:02;10.60;96.70
9971;DHT22;5026;51.494;11.974;2023-05-10T00:33:29;10.60;96.80
9971;DHT22;5026;51.494;11.974;2023-05-10T00:35:58;10.60;96.90
9971;DHT22;5026;51.494;11.974;2023-05-10T00:38:25;10.50;97.00
9971;DHT22;5026;51.494;11.974;2023-05-10T00:40:52;10.50;97.10
9971;DHT22;5026;51.494;11.974;2023-05-10T00:43:19;10.50;97.20
9971;DHT22;5026;51.494;11.974;2023-05-10T00:45:46;10.50;97.30
9971;DHT22;5026;51.494;11.974;2023-05-10T00:48:13;10.50;97.30
9971;DHT22;5026;51.494;11.974;2023-05-10T00:50:41;10.40;97.40
9971;DHT22;5026;51.494;11.974;2023-05-10T00:53:09;10.40;97.40
9971;DHT22;5026;51.494;11.974;2023-05-10T00:55:36;10.40;97.50
9971;DHT22;5026;51.494;11.974;2023-05-10T00:58:04;10.40;97.50
9971;DHT22;5026;51.494;11.974;2023-05-10T01:00:32;10.40;97.60
9971;DHT22;5026;51.494;11.974;2023-05-10T01:02:59;10.30;97.70
9971;DHT22;5026;51.494;11.974;2023-05-10T01:05:27;10.40;97.80
9971;DHT22;5026;51.494;11.974;2023-05-10T01:07:54;10.30;97.90
9971;DHT22;5026;51.494;11.974;2023-05-10T01:10:22;10.30;97.90
9971;DHT22;5026;51.494;11.974;2023-05-10T01:12:50;10.20;97.90
9971;DHT22;5026;51.494;11.974;2023-05-10T01:15:18;10.20;98.00
9971;DHT22;5026;51.494;11.974;2023-05-10T01:17:46;10.20;98.10
9971;DHT22;5026;51.494;11.974;2023-05-10T01:20:14;10.20;98.20
9971;DHT22;5026;51.494;11.974;2023-05-10T01:29:14;10.10;98.30
9971;DHT22;5026;51.494;11.974;2023-05-10T01:32:26;10.10;98.30
9971;DHT22;5026;51.494;11.974;2023-05-10T01:35:00;10.10;98.30
9971;DHT22;5026;51.494;11.974;2023-05-10T01:37:33;10.10;98.40
9971;DHT22;5026;51.494;11.974;2023-05-10T01:40:08;10.10;98.40
9971;DHT22;5026;51.494;11.974;2023-05-10T01:42:42;10.10;98.50
9971;DHT22;5026;51.494;11.974;2023-05-10T01:45:18;10.00;98.70
9971;DHT22;5026;51.494;11.974;2023-05-10T01:47:52;9.90;99.10
9971;DHT22;5026;51.494;11.974;2023-05-10T01:50:31;9.90;99.20
9971;DHT22;5026;51.494;11.974;2023-05-10T01:53:00;9.80;99.20
9971;DHT22;5026;51.494;11.974;2023-05-10T01:55:32;9.80;99.30
9971;DHT22;5026;51.494;11.974;2023-05-10T01:58:05;9.80;99.40
9971;DHT22;5026;51.494;11.974;2023-05-10T02:00:34;9.70;99.50
9971;DHT22;5026;51.494;11.974;2023-05-10T02:03:05;9.70;99.60
9971;DHT22;5026;51.494;11.974;2023-05-10T02:05:34;9.60;99.60
9971;DHT22;5026;51.494;11.974;2023-05-10T02:08:04;9.60;99.70
9971;DHT22;5026;51.494;11.974;2023-05-10T02:10:32;9.60;99.80
9971;DHT22;5026;51.494;11.974;2023-05-10T02:13:01;9.60;99.80
9971;DHT22;5026;51.494;11.974;2023-05-10T02:15:29;9.60;99.90
9971;DHT22;5026;51.494;11.974;2023-05-10T02:17:57;9.60;99.90
9971;DHT22;5026;51.494;11.974;2023-05-10T02:20:27;9.50;99.90
9971;DHT22;5026;51.494;11.974;2023-05-10T02:22:56;9.50;99.90
9971;DHT22;5026;51.494;11.974;2023-05-10T02:25:24;9.50;99.90
9971;DHT22;5026;51.494;11.974;2023-05-10T02:27:54;9.50;99.90
9971;DHT22;5026;51.494;11.974;2023-05-10T02:30:22;9.40;99.90
9971;DHT22;5026;51.494;11.974;2023-05-10T02:32:51;9.40;99.90
9971;DHT22;5026;51.494;11.974;2023-05-10T02:35:18;9.40;99.90
9971;DHT22;5026;51.494;11.974;2023-05-10T02:37:47;9.40;99.90
9971;DHT22;5026;51.494;11.974;2023-05-10T02:40:15;9.40;99.90
9971;DHT22;5026;51.494;11.974;2023-05-10T02:42:44;9.40;99.90
9971;DHT22;5026;51.494;11.974;2023-05-10T02:45:19;9.30;99.90
9971;DHT22;5026;51.494;11.974;2023-05-10T02:47:47;9.30;99.90
9971;DHT22;5026;51.494;11.974;2023-05-10T02:50:14;9.30;99.90
9971;DHT22;5026;51.494;11.974;2023-05-10T02:52:44;9.30;99.90
9971;DHT22;5026;51.494;11.974;2023-05-10T02:55:14;9.20;99.90
9971;DHT22;5026;51.494;11.974;2023-05-10T02:57:53;9.20;99.90
9971;DHT22;5026;51.494;11.974;2023-05-10T03:00:21;9.20;99.90
9971;DHT22;5026;51.494;11.974;2023-05-10T03:02:48;9.20;99.90
9971;DHT22;5026;51.494;11.974;2023-05-10T03:05:15;9.10;99.90
9971;DHT22;5026;51.494;11.974;2023-05-10T03:07:42;9.10;99.90
9971;DHT22;5026;51.494;11.974;2023-05-10T03:10:10;9.10;99.90
9971;DHT22;5026;51.494;11.974;2023-05-10T03:12:57;9.10;99.90
9971;DHT22;5026;51.494;11.974;2023-05-10T03:15:34;9.10;99.90
9971;DHT22;5026;51.494;11.974;2023-05-10T03:18:07;9.00;99.90
9971;DHT22;5026;51.494;11.974;2023-05-10T03:20:38;9.10;99.90
9971;DHT22;5026;51.494;11.974;2023-05-10T03:23:12;9.00;99.90
9971;DHT22;5026;51.494;11.974;2023-05-10T03:25:41;9.00;99.90
9971;DHT22;5026;51.494;11.974;2023-05-10T03:28:11;9.00;99.90
9971;DHT22;5026;51.494;11.974;2023-05-10T03:30:39;9.00;99.90
9971;DHT22;5026;51.494;11.974;2023-05-10T03:33:07;8.90;99.90
9971;DHT22;5026;51.494;11.974;2023-05-10T03:35:34;9.00;99.90
9971;DHT22;5026;51.494;11.974;2023-05-10T03:38:01;9.00;99.90
9971;DHT22;5026;51.494;11.974;2023-05-10T03:40:28;9.00;99.90
9971;DHT22;5026;51.494;11.974;2023-05-10T03:42:57;9.00;99.90
9971;DHT22;5026;51.494;11.974;2023-05-10T03:45:26;8.90;99.90
9971;DHT22;5026;51.494;11.974;2023-05-10T03:47:53;8.90;99.90
9971;DHT22;5026;51.494;11.974;2023-05-10T03:50:20;8.90;99.90
9971;DHT22;5026;51.494;11.974;2023-05-10T03:52:48;9.00;99.90
9971;DHT22;5026;51.494;11.974;2023-05-10T03:55:15;9.00;99.90
9971;DHT22;5026;51.494;11.974;2023-05-10T03:57:43;9.10;99.90
9971;DHT22;5026;51.494;11.974;2023-05-10T04:00:10;9.20;99.90
9971;DHT22;5026;51.494;11.974;2023-05-10T04:02:39;9.30;99.90
9971;DHT22;5026;51.494;11.974;2023-05-10T04:05:06;9.50;99.90
9971;DHT22;5026;51.494;11.974;2023-05-10T04:07:33;9.40;99.90
9971;DHT22;5026;51.494;11.974;2023-05-10T04:10:00;9.50;99.90
9971;DHT22;5026;51.494;11.974;2023-05-10T04:12:27;9.60;99.90
9971;DHT22;5026;51.494;11.974;2023-05-10T04:14:54;9.80;99.90
9971;DHT22;5026;51.494;11.974;2023-05-10T04:17:21;9.90;99.90
9971;DHT22;5026;51.494;11.974;2023-05-10T04:19:49;10.00;99.90
9971;DHT22;5026;51.494;11.974;2023-05-10T04:22:18;10.10;99.90
9971;DHT22;5026;51.494;11.974;2023-05-10T04:24:45;10.10;99.90
9971;DHT22;5026;51.494;11.974;2023-05-10T04:27:12;10.30;99.90
9971;DHT22;5026;51.494;11.974;2023-05-10T04:29:39;10.40;99.90
9971;DHT22;5026;51.494;11.974;2023-05-10T04:32:07;10.60;99.90
9971;DHT22;5026;51.494;11.974;2023-05-10T04:34:36;10.80;99.80
9971;DHT22;5026;51.494;11.974;2023-05-10T04:37:04;10.90;99.60
9971;DHT22;5026;51.494;11.974;2023-05-10T04:39:32;11.10;99.50
9971;DHT22;5026;51.494;11.974;2023-05-10T04:42:00;11.30;99.30
9971;DHT22;5026;51.494;11.974;2023-05-10T04:44:28;11.30;99.20
9971;DHT22;5026;51.494;11.974;2023-05-10T04:46:55;11.60;99.10
9971;DHT22;5026;51.494;11.974;2023-05-10T04:49:22;11.50;99.10
9971;DHT22;5026;51.494;11.974;2023-05-10T04:51:49;11.70;99.00
9971;DHT22;5026;51.494;11.974;2023-05-10T04:54:18;11.80;98.80
9971;DHT22;5026;51.494;11.974;2023-05-10T04:56:45;11.80;98.60
9971;DHT22;5026;51.494;11.974;2023-05-10T04:59:12;11.90;98.60
9971;DHT22;5026;51.494;11.974;2023-05-10T05:01:39;12.20;98.50
9971;DHT22;5026;51.494;11.974;2023-05-10T05:04:06;12.50;98.40
9971;DHT22;5026;51.494;11.974;2023-05-10T05:06:33;12.80;98.20
9971;DHT22;5026;51.494;11.974;2023-05-10T05:09:00;12.90;97.90
9971;DHT22;5026;51.494;11.974;2023-05-10T05:11:28;13.10;97.60
9971;DHT22;5026;51.494;11.974;2023-05-10T05:13:55;13.30;97.40
9971;DHT22;5026;51.494;11.974;2023-05-10T05:16:24;13.50;97.50
9971;DHT22;5026;51.494;11.974;2023-05-10T05:18:51;13.80;97.10
9971;DHT22;5026;51.494;11.974;2023-05-10T05:21:18;13.80;96.80
9971;DHT22;5026;51.494;11.974;2023-05-10T05:23:46;13.60;97.00
9971;DHT22;5026;51.494;11.974;2023-05-10T05:26:13;13.40;97.00
9971;DHT22;5026;51.494;11.974;2023-05-10T05:28:42;13.30;97.10
9971;DHT22;5026;51.494;11.974;2023-05-10T05:31:09;13.20;97.20
9971;DHT22;5026;51.494;11.974;2023-05-10T05:33:36;13.20;97.20
9971;DHT22;5026;51.494;11.974;2023-05-10T05:36:04;13.20;97.40
9971;DHT22;5026;51.494;11.974;2023-05-10T05:38:32;13.20;97.40
9971;DHT22;5026;51.494;11.974;2023-05-10T05:40:58;13.40;97.50
9971;DHT22;5026;51.494;11.974;2023-05-10T05:43:25;13.40;97.40
9971;DHT22;5026;51.494;11.974;2023-05-10T05:45:54;13.50;97.40
9971;DHT22;5026;51.494;11.974;2023-05-10T05:48:23;13.70;97.30
9971;DHT22;5026;51.494;11.974;2023-05-10T05:50:50;13.60;97.20
9971;DHT22;5026;51.494;11.974;2023-05-10T05:53:17;13.50;97.30
9971;DHT22;5026;51.494;11.974;2023-05-10T05:55:51;13.60;97.30
9971;DHT22;5026;51.494;11.974;2023-05-10T05:58:19;13.70;97.40
9971;DHT22;5026;51.494;11.974;2023-05-10T06:00:45;13.90;97.20
9971;DHT22;5026;51.494;11.974;2023-05-10T06:03:14;14.00;97.10
9971;DHT22;5026;51.494;11.974;2023-05-10T06:05:41;14.00;96.90
9971;DHT22;5026;51.494;11.974;2023-05-10T06:08:08;14.20;96.90
9971;DHT22;5026;51.494;11.974;2023-05-10T06:10:35;14.10;96.70
9971;DHT22;5026;51.494;11.974;2023-05-10T06:13:02;14.20;96.90
9971;DHT22;5026;51.494;11.974;2023-05-10T06:15:29;14.20;96.80
9971;DHT22;5026;51.494;11.974;2023-05-10T06:17:56;14.20;96.70
9971;DHT22;5026;51.494;11.974;2023-05-10T06:20:25;14.30;96.70
9971;DHT22;5026;51.494;11.974;2023-05-10T06:22:52;14.40;96.70
9971;DHT22;5026;51.494;11.974;2023-05-10T06:25:18;14.50;96.50
9971;DHT22;5026;51.494;11.974;2023-05-10T06:27:46;14.90;96.50
9971;DHT22;5026;51.494;11.974;2023-05-10T06:30:13;15.00;96.30
9971;DHT22;5026;51.494;11.974;2023-05-10T06:32:41;15.00;96.10
9971;DHT22;5026;51.494;11.974;2023-05-10T06:35:09;15.30;96.00
9971;DHT22;5026;51.494;11.974;2023-05-10T06:37:38;15.80;95.60
9971;DHT22;5026;51.494;11.974;2023-05-10T06:40:06;15.90;95.30
9971;DHT22;5026;51.494;11.974;2023-05-10T06:42:33;16.00;95.20
9971;DHT22;5026;51.494;11.974;2023-05-10T06:45:00;15.80;95.20
9971;DHT22;5026;51.494;11.974;2023-05-10T06:47:27;16.00;95.10
9971;DHT22;5026;51.494;11.974;2023-05-10T06:49:54;16.40;95.00
9971;DHT22;5026;51.494;11.974;2023-05-10T06:52:21;16.30;94.80
9971;DHT22;5026;51.494;11.974;2023-05-10T06:54:50;15.90;94.80
9971;DHT22;5026;51.494;11.974;2023-05-10T06:57:17;15.70;95.20
9971;DHT22;5026;51.494;11.974;2023-05-10T06:59:45;15.90;95.20
9971;DHT22;5026;51.494;11.974;2023-05-10T07:02:11;15.80;95.10
9971;DHT22;5026;51.494;11.974;2023-05-10T07:04:40;15.90;95.10
9971;DHT22;5026;51.494;11.974;2023-05-10T07:07:07;15.90;95.30
9971;DHT22;5026;51.494;11.974;2023-05-10T07:09:34;16.00;95.10
9971;DHT22;5026;51.494;11.974;2023-05-10T07:12:02;16.20;95.00
9971;DHT22;5026;51.494;11.974;2023-05-10T07:14:29;15.90;95.00
9971;DHT22;5026;51.494;11.974;2023-05-10T07:16:56;16.10;95.10
9971;DHT22;5026;51.494;11.974;2023-05-10T07:19:23;16.30;94.90
9971;DHT22;5026;51.494;11.974;2023-05-10T07:21:50;16.10;95.00
9971;DHT22;5026;51.494;11.974;2023-05-10T07:24:17;15.90;95.20
9971;DHT22;5026;51.494;11.974;2023-05-10T07:26:44;15.80;95.40
9971;DHT22;5026;51.494;11.974;2023-05-10T07:29:13;16.00;95.40
9971;DHT22;5026;51.494;11.974;2023-05-10T07:31:39;15.70;95.50
9971;DHT22;5026;51.494;11.974;2023-05-10T07:34:07;15.20;96.00
9971;DHT22;5026;51.494;11.974;2023-05-10T07:36:34;15.20;96.20
9971;DHT22;5026;51.494;11.974;2023-05-10T07:39:01;15.40;96.20
9971;DHT22;5026;51.494;11.974;2023-05-10T07:41:28;15.60;96.30
9971;DHT22;5026;51.494;11.974;2023-05-10T07:43:55;15.50;96.50
9971;DHT22;5026;51.494;11.974;2023-05-10T07:46:24;15.40;96.80
9971;DHT22;5026;51.494;11.974;2023-05-10T07:48:50;15.50;96.90
9971;DHT22;5026;51.494;11.974;2023-05-10T07:51:17;15.50;97.40
9971;DHT22;5026;51.494;11.974;2023-05-10T07:53:44;15.80;97.50
9971;DHT22;5026;51.494;11.974;2023-05-10T07:56:22;16.00;97.50
9971;DHT22;5026;51.494;11.974;2023-05-10T07:58:50;16.10;97.50
9971;DHT22;5026;51.494;11.974;2023-05-10T08:01:18;16.00;97.60
9971;DHT22;5026;51.494;11.974;2023-05-10T08:03:46;15.80;97.90
9971;DHT22;5026;51.494;11.974;2023-05-10T08:06:14;15.80;97.80
9971;DHT22;5026;51.494;11.974;2023-05-10T08:08:41;15.40;98.10
9971;DHT22;5026;51.494;11.974;2023-05-10T08:11:08;15.30;98.40
9971;DHT22;5026;51.494;11.974;2023-05-10T08:13:35;15.10;98.70
9971;DHT22;5026;51.494;11.974;2023-05-10T08:16:02;14.90;99.00
9971;DHT22;5026;51.494;11.974;2023-05-10T08:18:29;15.00;99.30
9971;DHT22;5026;51.494;11.974;2023-05-10T08:20:57;15.10;99.50
9971;DHT22;5026;51.494;11.974;2023-05-10T08:23:24;15.10;99.60
9971;DHT22;5026;51.494;11.974;2023-05-10T08:25:51;15.20;99.70
9971;DHT22;5026;51.494;11.974;2023-05-10T08:28:18;15.10;99.90
9971;DHT22;5026;51.494;11.974;2023-05-10T08:30:45;15.00;99.90
9971;DHT22;5026;51.494;11.974;2023-05-10T08:33:12;13.30;99.90
9971;DHT22;5026;51.494;11.974;2023-05-10T08:35:39;14.70;99.90
9971;DHT22;5026;51.494;11.974;2023-05-10T08:38:08;14.80;99.90
9971;DHT22;5026;51.494;11.974;2023-05-10T08:40:37;14.80;99.90
9971;DHT22;5026;51.494;11.974;2023-05-10T08:43:06;14.80;99.90
9971;DHT22;5026;51.494;11.974;2023-05-10T08:45:37;14.90;99.90
9971;DHT22;5026;51.494;11.974;2023-05-10T08:48:05;14.80;99.90
9971;DHT22;5026;51.494;11.974;2023-05-10T08:50:34;14.70;99.90
9971;DHT22;5026;51.494;11.974;2023-05-10T08:53:05;14.90;99.90
9971;DHT22;5026;51.494;11.974;2023-05-10T08:55:34;14.80;99.90
9971;DHT22;5026;51.494;11.974;2023-05-10T08:58:02;14.80;99.90
9971;DHT22;5026;51.494;11.974;2023-05-10T09:00:29;14.70;99.90
9971;DHT22;5026;51.494;11.974;2023-05-10T09:02:57;14.90;99.90
9971;DHT22;5026;51.494;11.974;2023-05-10T09:05:25;14.80;99.90
9971;DHT22;5026;51.494;11.974;2023-05-10T09:07:52;15.00;99.90
9971;DHT22;5026;51.494;11.974;2023-05-10T09:10:19;14.70;99.90
9971;DHT22;5026;51.494;11.974;2023-05-10T09:12:48;14.70;99.90
9971;DHT22;5026;51.494;11.974;2023-05-10T09:15:15;14.70;99.90
9971;DHT22;5026;51.494;11.974;2023-05-10T09:17:45;15.00;99.90
9971;DHT22;5026;51.494;11.974;2023-05-10T09:20:12;15.20;99.90
9971;DHT22;5026;51.494;11.974;2023-05-10T09:22:39;15.20;99.90
9971;DHT22;5026;51.494;11.974;2023-05-10T09:25:08;15.00;99.90
9971;DHT22;5026;51.494;11.974;2023-05-10T09:27:35;15.10;99.90
9971;DHT22;5026;51.494;11.974;2023-05-10T09:30:05;15.50;99.90
9971;DHT22;5026;51.494;11.974;2023-05-10T09:32:39;15.80;99.90
9971;DHT22;5026;51.494;11.974;2023-05-10T09:35:08;15.80;99.90
9971;DHT22;5026;51.494;11.974;2023-05-10T09:37:36;15.70;99.90
9971;DHT22;5026;51.494;11.974;2023-05-10T09:40:07;15.80;99.90
9971;DHT22;5026;51.494;11.974;2023-05-10T09:42:34;15.90;99.90
9971;DHT22;5026;51.494;11.974;2023-05-10T09:45:04;15.90;99.90
9971;DHT22;5026;51.494;11.974;2023-05-10T09:47:32;15.80;99.90
9971;DHT22;5026;51.494;11.974;2023-05-10T09:50:00;16.00;99.90
9971;DHT22;5026;51.494;11.974;2023-05-10T09:52:29;15.90;99.90
9971;DHT22;5026;51.494;11.974;2023-05-10T09:54:57;16.10;99.90
9971;DHT22;5026;51.494;11.974;2023-05-10T09:57:24;16.30;99.90
9971;DHT22;5026;51.494;11.974;2023-05-10T09:59:51;16.50;99.90
9971;DHT22;5026;51.494;11.974;2023-05-10T10:02:21;16.50;99.90
9971;DHT22;5026;51.494;11.974;2023-05-10T10:04:55;16.80;99.90
9971;DHT22;5026;51.494;11.974;2023-05-10T10:07:23;16.70;99.90
9971;DHT22;5026;51.494;11.974;2023-05-10T10:09:51;17.00;99.90
9971;DHT22;5026;51.494;11.974;2023-05-10T10:12:18;16.80;99.90
9971;DHT22;5026;51.494;11.974;2023-05-10T10:14:46;17.00;99.90
9971;DHT22;5026;51.494;11.974;2023-05-10T10:17:15;17.00;99.90
9971;DHT22;5026;51.494;11.974;2023-05-10T10:19:43;16.90;99.90
9971;DHT22;5026;51.494;11.974;2023-05-10T10:22:12;16.70;99.90
9971;DHT22;5026;51.494;11.974;2023-05-10T10:24:39;16.90;99.90
9971;DHT22;5026;51.494;11.974;2023-05-10T10:27:19;17.20;99.90
9971;DHT22;5026;51.494;11.974;2023-05-10T10:29:52;17.60;99.90
9971;DHT22;5026;51.494;11.974;2023-05-10T10:32:27;17.80;99.90
9971;DHT22;5026;51.494;11.974;2023-05-10T10:34:57;17.80;99.90
9971;DHT22;5026;51.494;11.974;2023-05-10T10:37:44;17.70;99.90
9971;DHT22;5026;51.494;11.974;2023-05-10T10:40:33;17.80;99.90
9971;DHT22;5026;51.494;11.974;2023-05-10T10:43:22;18.00;99.90
9971;DHT22;5026;51.494;11.974;2023-05-10T10:46:10;17.80;99.90
9971;DHT22;5026;51.494;11.974;2023-05-10T10:48:38;17.70;99.90
9971;DHT22;5026;51.494;11.974;2023-05-10T10:51:07;17.50;99.90
9971;DHT22;5026;51.494;11.974;2023-05-10T10:53:34;17.70;99.90
9971;DHT22;5026;51.494;11.974;2023-05-10T10:56:08;18.20;99.90
9971;DHT22;5026;51.494;11.974;2023-05-10T10:58:36;18.60;99.90
9971;DHT22;5026;51.494;11.974;2023-05-10T11:01:14;19.00;99.90
9971;DHT22;5026;51.494;11.974;2023-05-10T11:04:17;19.30;99.90
9971;DHT22;5026;51.494;11.974;2023-05-10T11:06:45;19.60;99.90
9971;DHT22;5026;51.494;11.974;2023-05-10T11:09:13;19.80;99.90
9971;DHT22;5026;51.494;11.974;2023-05-10T11:11:51;19.80;99.90
9971;DHT22;5026;51.494;11.974;2023-05-10T11:14:21;19.70;99.90
9971;DHT22;5026;51.494;11.974;2023-05-10T11:16:48;19.70;99.90
9971;DHT22;5026;51.494;11.974;2023-05-10T11:19:17;19.80;99.90
9971;DHT22;5026;51.494;11.974;2023-05-10T11:21:47;19.90;99.90
9971;DHT22;5026;51.494;11.974;2023-05-10T11:24:16;19.90;99.90
9971;DHT22;5026;51.494;11.974;2023-05-10T11:26:43;19.80;99.90
9971;DHT22;5026;51.494;11.974;2023-05-10T11:29:11;19.80;99.90
9971;DHT22;5026;51.494;11.974;2023-05-10T11:31:42;20.00;99.90
9971;DHT22;5026;51.494;11.974;2023-05-10T11:34:10;20.40;99.90
9971;DHT22;5026;51.494;11.974;2023-05-10T11:36:38;20.80;99.90
9971;DHT22;5026;51.494;11.974;2023-05-10T11:39:06;21.10;99.90
9971;DHT22;5026;51.494;11.974;2023-05-10T11:41:33;21.40;99.90
9971;DHT22;5026;51.494;11.974;2023-05-10T11:44:01;21.60;99.90
9971;DHT22;5026;51.494;11.974;2023-05-10T11:46:29;21.50;99.90
9971;DHT22;5026;51.494;11.974;2023-05-10T11:48:58;21.20;99.90
9971;DHT22;5026;51.494;11.974;2023-05-10T11:51:27;21.00;99.90
9971;DHT22;5026;51.494;11.974;2023-05-10T11:53:56;20.90;99.90
9971;DHT22;5026;51.494;11.974;2023-05-10T11:56:24;20.80;99.90
9971;DHT22;5026;51.494;11.974;2023-05-10T11:58:53;20.70;99.90
9971;DHT22;5026;51.494;11.974;2023-05-10T12:01:21;20.50;99.90
9971;DHT22;5026;51.494;11.974;2023-05-10T12:03:48;20.50;99.90
9971;DHT22;5026;51.494;11.974;2023-05-10T12:06:16;20.30;99.90
9971;DHT22;5026;51.494;11.974;2023-05-10T12:08:45;20.10;99.90
9971;DHT22;5026;51.494;11.974;2023-05-10T12:11:12;20.00;99.90
9971;DHT22;5026;51.494;11.974;2023-05-10T12:13:43;19.80;99.90
9971;DHT22;5026;51.494;11.974;2023-05-10T12:16:16;19.40;99.90
9971;DHT22;5026;51.494;11.974;2023-05-10T12:18:44;19.10;99.90
9971;DHT22;5026;51.494;11.974;2023-05-10T12:21:12;18.80;99.90
9971;DHT22;5026;51.494;11.974;2023-05-10T12:23:39;18.60;99.90
9971;DHT22;5026;51.494;11.974;2023-05-10T12:26:06;18.60;99.90
9971;DHT22;5026;51.494;11.974;2023-05-10T12:28:35;18.60;99.90
9971;DHT22;5026;51.494;11.974;2023-05-10T12:31:06;18.50;99.90
9971;DHT22;5026;51.494;11.974;2023-05-10T12:33:36;18.40;99.90
9971;DHT22;5026;51.494;11.974;2023-05-10T12:36:05;18.40;99.90
9971;DHT22;5026;51.494;11.974;2023-05-10T12:38:33;18.30;99.90
9971;DHT22;5026;51.494;11.974;2023-05-10T12:41:02;18.30;99.90
9971;DHT22;5026;51.494;11.974;2023-05-10T12:43:30;18.10;99.90
9971;DHT22;5026;51.494;11.974;2023-05-10T12:45:57;18.10;99.90
9971;DHT22;5026;51.494;11.974;2023-05-10T12:48:26;18.00;99.90
9971;DHT22;5026;51.494;11.974;2023-05-10T12:50:54;17.80;99.90
9971;DHT22;5026;51.494;11.974;2023-05-10T12:53:21;17.80;99.90
9971;DHT22;5026;51.494;11.974;2023-05-10T12:55:47;17.90;99.90
9971;DHT22;5026;51.494;11.974;2023-05-10T12:58:14;17.80;99.90
9971;DHT22;5026;51.494;11.974;2023-05-10T13:00:41;18.00;99.90
9971;DHT22;5026;51.494;11.974;2023-05-10T13:03:09;17.80;99.90
9971;DHT22;5026;51.494;11.974;2023-05-10T13:05:38;17.80;99.90
9971;DHT22;5026;51.494;11.974;2023-05-10T13:08:05;18.10;99.90
9971;DHT22;5026;51.494;11.974;2023-05-10T13:10:32;18.30;99.90
9971;DHT22;5026;51.494;11.974;2023-05-10T13:12:59;18.40;99.90
9971;DHT22;5026;51.494;11.974;2023-05-10T13:15:26;18.80;99.90
9971;DHT22;5026;51.494;11.974;2023-05-10T13:17:54;18.80;99.90
9971;DHT22;5026;51.494;11.974;2023-05-10T13:20:21;18.60;99.90
9971;DHT22;5026;51.494;11.974;2023-05-10T13:22:50;18.80;99.90
9971;DHT22;5026;51.494;11.974;2023-05-10T13:25:17;18.50;99.90
9971;DHT22;5026;51.494;11.974;2023-05-10T13:27:44;18.50;99.90
9971;DHT22;5026;51.494;11.974;2023-05-10T13:30:13;18.40;99.90
9971;DHT22;5026;51.494;11.974;2023-05-10T13:32:40;18.50;99.90
9971;DHT22;5026;51.494;11.974;2023-05-10T13:35:08;18.60;99.90
9971;DHT22;5026;51.494;11.974;2023-05-10T13:37:35;18.70;99.90
9971;DHT22;5026;51.494;11.974;2023-05-10T13:40:07;18.60;99.90
9971;DHT22;5026;51.494;11.974;2023-05-10T13:42:34;18.60;99.90
9971;DHT22;5026;51.494;11.974;2023-05-10T13:45:02;18.10;99.90
9971;DHT22;5026;51.494;11.974;2023-05-10T13:47:30;17.90;99.90
9971;DHT22;5026;51.494;11.974;2023-05-10T13:49:58;18.10;99.90
9971;DHT22;5026;51.494;11.974;2023-05-10T13:52:26;18.10;99.90
9971;DHT22;5026;51.494;11.974;2023-05-10T13:54:58;18.20;99.90
9971;DHT22;5026;51.494;11.974;2023-05-10T13:57:27;18.40;99.90
9971;DHT22;5026;51.494;11.974;2023-05-10T13:59:55;18.30;99.90
9971;DHT22;5026;51.494;11.974;2023-05-10T14:02:23;18.30;99.90
9971;DHT22;5026;51.494;11.974;2023-05-10T14:04:51;18.30;99.90
9971;DHT22;5026;51.494;11.974;2023-05-10T14:07:18;18.40;99.90
9971;DHT22;5026;51.494;11.974;2023-05-10T14:09:45;18.30;99.90
9971;DHT22;5026;51.494;11.974;2023-05-10T14:12:12;18.40;99.90
9971;DHT22;5026;51.494;11.974;2023-05-10T14:14:41;18.50;99.90
9971;DHT22;5026;51.494;11.974;2023-05-10T14:17:08;18.80;99.90
9971;DHT22;5026;51.494;11.974;2023-05-10T14:19:36;18.40;99.90
9971;DHT22;5026;51.494;11.974;2023-05-10T14:22:04;18.40;99.90
9971;DHT22;5026;51.494;11.974;2023-05-10T14:24:33;18.50;99.90
9971;DHT22;5026;51.494;11.974;2023-05-10T14:27:02;18.30;99.90
9971;DHT22;5026;51.494;11.974;2023-05-10T14:29:29;18.50;99.90
9971;DHT22;5026;51.494;11.974;2023-05-10T14:32:00;18.80;99.90
9971;DHT22;5026;51.494;11.974;2023-05-10T14:34:28;18.90;99.90
9971;DHT22;5026;51.494;11.974;2023-05-10T14:36:55;19.00;99.90
9971;DHT22;5026;51.494;11.974;2023-05-10T14:39:22;19.10;99.90
9971;DHT22;5026;51.494;11.974;2023-05-10T14:41:49;19.00;99.90
9971;DHT22;5026;51.494;11.974;2023-05-10T14:44:17;18.80;99.90
9971;DHT22;5026;51.494;11.974;2023-05-10T14:46:44;18.90;99.90
9971;DHT22;5026;51.494;11.974;2023-05-10T14:49:15;19.00;99.90
9971;DHT22;5026;51.494;11.974;2023-05-10T14:51:43;18.90;99.90
9971;DHT22;5026;51.494;11.974;2023-05-10T14:54:10;18.80;99.90
9971;DHT22;5026;51.494;11.974;2023-05-10T14:56:37;18.50;99.90
9971;DHT22;5026;51.494;11.974;2023-05-10T14:59:07;18.40;99.90
9971;DHT22;5026;51.494;11.974;2023-05-10T15:01:34;18.40;99.90
9971;DHT22;5026;51.494;11.974;2023-05-10T15:04:03;18.30;99.90
9971;DHT22;5026;51.494;11.974;2023-05-10T15:06:33;18.30;99.90
9971;DHT22;5026;51.494;11.974;2023-05-10T15:09:01;18.10;99.90
9971;DHT22;5026;51.494;11.974;2023-05-10T15:11:29;18.20;99.90
9971;DHT22;5026;51.494;11.974;2023-05-10T15:13:56;18.40;99.90
9971;DHT22;5026;51.494;11.974;2023-05-10T15:16:23;18.60;99.90
9971;DHT22;5026;51.494;11.974;2023-05-10T15:18:50;18.70;99.90
9971;DHT22;5026;51.494;11.974;2023-05-10T15:21:17;18.00;99.90
9971;DHT22;5026;51.494;11.974;2023-05-10T15:23:45;17.80;99.90
9971;DHT22;5026;51.494;11.974;2023-05-10T15:26:13;17.90;99.90
9971;DHT22;5026;51.494;11.974;2023-05-10T15:28:40;17.90;99.90
9971;DHT22;5026;51.494;11.974;2023-05-10T15:31:07;17.70;99.90
9971;DHT22;5026;51.494;11.974;2023-05-10T15:33:35;17.80;99.90
9971;DHT22;5026;51.494;11.974;2023-05-10T15:36:05;17.80;99.90
9971;DHT22;5026;51.494;11.974;2023-05-10T15:38:32;17.90;99.90
9971;DHT22;5026;51.494;11.974;2023-05-10T15:41:01;18.20;99.90
9971;DHT22;5026;51.494;11.974;2023-05-10T15:43:28;18.40;99.90
9971;DHT22;5026;51.494;11.974;2023-05-10T15:45:55;18.30;99.90
9971;DHT22;5026;51.494;11.974;2023-05-10T15:48:22;18.30;99.90
9971;DHT22;5026;51.494;11.974;2023-05-10T15:50:49;18.20;99.90
9971;DHT22;5026;51.494;11.974;2023-05-10T15:53:16;18.00;99.90
9971;DHT22;5026;51.494;11.974;2023-05-10T15:55:43;18.10;99.90
9971;DHT22;5026;51.494;11.974;2023-05-10T15:58:11;18.10;99.90
9971;DHT22;5026;51.494;11.974;2023-05-10T16:00:38;17.60;99.90
9971;DHT22;5026;51.494;11.974;2023-05-10T16:03:05;17.50;99.90